createdAt,value
2022-09-20T00:01:27.248Z,0.93
2022-09-20T00:03:57.877Z,1.03
2022-09-20T00:06:29.908Z,1.20
2022-09-20T00:08:57.947Z,1.03
2022-09-20T00:11:28.644Z,0.90
2022-09-20T00:13:57.701Z,1.00
2022-09-20T00:16:33.896Z,1.10
2022-09-20T00:19:06.119Z,1.00
2022-09-20T00:21:36.499Z,0.97
2022-09-20T00:24:04.529Z,0.97
2022-09-20T00:26:32.984Z,0.97
2022-09-20T00:29:00.427Z,1.10
2022-09-20T00:31:27.991Z,0.90
2022-09-20T00:34:15.174Z,1.00
2022-09-20T00:36:42.926Z,1.00
2022-09-20T00:39:13.544Z,1.10
2022-09-20T00:41:41.895Z,1.10
2022-09-20T00:44:44.732Z,1.20
2022-09-20T00:47:26.952Z,1.17
2022-09-20T00:50:00.167Z,0.87
2022-09-20T00:52:29.387Z,0.80
2022-09-20T00:54:57.355Z,0.77
2022-09-20T00:57:24.849Z,0.90
2022-09-20T00:59:56.016Z,1.07
2022-09-20T01:02:31.130Z,1.33
2022-09-20T01:04:59.297Z,1.10
2022-09-20T01:07:27.084Z,0.90
2022-09-20T01:09:55.119Z,0.90
2022-09-20T01:12:30.643Z,1.03
2022-09-20T01:14:59.421Z,0.93
2022-09-20T01:17:34.960Z,1.00
2022-09-20T01:20:17.130Z,1.27
2022-09-20T01:23:03.104Z,0.80
2022-09-20T01:25:50.117Z,0.90
2022-09-20T01:28:17.773Z,1.00
2022-09-20T01:30:50.215Z,1.00
2022-09-20T01:33:29.089Z,1.10
2022-09-20T01:35:59.015Z,0.90
2022-09-20T01:38:44.613Z,0.97
2022-09-20T01:41:17.676Z,0.90
2022-09-20T01:44:05.153Z,1.40
2022-09-20T01:46:37.140Z,0.83
2022-09-20T01:49:22.696Z,1.17
2022-09-20T01:52:01.852Z,1.00
2022-09-20T01:54:41.317Z,1.00
2022-09-20T01:57:33.947Z,0.93
2022-09-20T02:00:04.115Z,1.00
2022-09-20T02:02:56.086Z,0.90
2022-09-20T02:05:58.784Z,1.00
2022-09-20T02:09:13.532Z,1.03
2022-09-20T02:12:19.814Z,1.00
2022-09-20T02:15:15.761Z,1.20
2022-09-20T02:18:17.982Z,1.00
2022-09-20T02:20:54.200Z,1.07
2022-09-20T02:23:41.122Z,0.93
2022-09-20T02:26:23.054Z,0.97
2022-09-20T02:28:59.202Z,1.30
2022-09-20T02:32:07.580Z,1.20
2022-09-20T02:35:09.541Z,1.17
2022-09-20T02:37:36.927Z,1.30
2022-09-20T02:40:45.786Z,0.90
2022-09-20T02:43:18.883Z,0.90
2022-09-20T02:45:57.388Z,1.13
2022-09-20T02:48:34.829Z,0.93
2022-09-20T02:51:18.548Z,0.90
2022-09-20T02:54:09.783Z,1.23
2022-09-20T02:57:00.868Z,1.20
2022-09-20T02:59:44.724Z,0.87
2022-09-20T03:02:44.374Z,0.93
2022-09-20T03:05:17.290Z,1.10
2022-09-20T03:08:06.078Z,1.20
2022-09-20T03:10:56.372Z,0.90
2022-09-20T03:14:05.701Z,1.17
2022-09-20T03:16:40.421Z,0.80
2022-09-20T03:19:36.735Z,0.97
2022-09-20T03:22:32.407Z,1.10
2022-09-20T03:25:28.658Z,0.97
2022-09-20T03:27:58.754Z,1.30
2022-09-20T03:30:54.014Z,1.27
2022-09-20T03:33:35.735Z,1.10
2022-09-20T03:36:12.143Z,1.10
2022-09-20T03:38:51.731Z,1.10
2022-09-20T03:41:57.275Z,1.27
2022-09-20T03:45:01.440Z,1.10
2022-09-20T03:48:01.874Z,1.40
2022-09-20T03:50:38.523Z,1.63
2022-09-20T03:53:43.338Z,1.80
2022-09-20T03:56:35.395Z,1.60
2022-09-20T03:59:27.772Z,1.27
2022-09-20T04:02:12.699Z,1.40
2022-09-20T04:04:48.905Z,1.10
2022-09-20T04:07:45.493Z,1.17
2022-09-20T04:10:38.445Z,1.10
2022-09-20T04:13:14.522Z,1.23
2022-09-20T04:16:03.830Z,0.90
2022-09-20T04:18:58.447Z,1.20
2022-09-20T04:21:43.820Z,1.10
2022-09-20T04:24:24.134Z,0.87
2022-09-20T04:27:24.650Z,0.90
2022-09-20T04:30:06.947Z,0.97
2022-09-20T04:33:00.409Z,0.90
2022-09-20T04:36:02.689Z,1.00
2022-09-20T04:38:31.288Z,0.90
2022-09-20T04:41:21.926Z,1.00
2022-09-20T04:44:12.273Z,0.90
2022-09-20T04:47:16.672Z,1.10
2022-09-20T04:50:06.494Z,1.07
2022-09-20T04:52:53.383Z,1.03
2022-09-20T04:55:45.071Z,0.87
2022-09-20T04:58:15.039Z,0.90
2022-09-20T05:01:06.609Z,0.80
2022-09-20T05:03:36.296Z,1.00
2022-09-20T05:06:27.658Z,1.10
2022-09-20T05:09:02.841Z,0.93
2022-09-20T05:11:57.396Z,0.97
2022-09-20T05:15:08.283Z,1.10
2022-09-20T05:17:58.294Z,0.90
2022-09-20T05:20:46.501Z,1.10
2022-09-20T05:23:37.935Z,1.00
2022-09-20T05:26:29.110Z,1.00
2022-09-20T05:29:10.386Z,1.03
2022-09-20T05:31:44.230Z,0.87
2022-09-20T05:34:23.285Z,1.73
2022-09-20T05:37:05.185Z,1.37
2022-09-20T05:40:13.608Z,2.00
2022-09-20T05:43:11.478Z,1.77
2022-09-20T05:45:53.579Z,1.57
2022-09-20T05:48:58.184Z,1.40
2022-09-20T05:51:47.362Z,1.30
2022-09-20T05:54:51.646Z,1.30
2022-09-20T05:57:48.754Z,1.33
2022-09-20T06:00:28.036Z,1.20
2022-09-20T06:03:30.574Z,1.30
2022-09-20T06:06:06.702Z,1.43
2022-09-20T06:09:01.463Z,1.37
2022-09-20T06:11:46.944Z,1.37
2022-09-20T06:14:39.052Z,1.20
2022-09-20T06:17:27.806Z,1.07
2022-09-20T06:20:06.846Z,1.10
2022-09-20T06:22:41.922Z,1.17
2022-09-20T06:25:08.997Z,1.03
2022-09-20T06:27:41.953Z,1.10
2022-09-20T06:30:18.240Z,1.30
2022-09-20T06:32:55.092Z,1.83
2022-09-20T06:35:25.077Z,1.50
2022-09-20T06:38:29.006Z,1.47
2022-09-20T06:41:15.540Z,1.60
2022-09-20T06:43:43.287Z,1.17
2022-09-20T06:46:11.044Z,1.20
2022-09-20T06:48:41.014Z,1.10
2022-09-20T06:51:12.601Z,1.10
2022-09-20T06:53:41.859Z,1.37
2022-09-20T06:56:16.861Z,1.13
2022-09-20T06:58:43.899Z,1.60
2022-09-20T07:01:11.013Z,1.30
2022-09-20T07:03:38.747Z,1.43
2022-09-20T07:06:06.746Z,1.40
2022-09-20T07:08:33.785Z,1.47
2022-09-20T07:11:12.071Z,1.67
2022-09-20T07:13:39.231Z,1.77
2022-09-20T07:16:08.649Z,2.20
2022-09-20T07:18:35.904Z,1.53
2022-09-20T07:21:03.476Z,2.13
2022-09-20T07:23:30.553Z,2.10
2022-09-20T07:26:01.310Z,2.10
2022-09-20T07:28:30.126Z,1.97
2022-09-20T07:30:57.268Z,1.90
2022-09-20T07:33:25.353Z,1.70
2022-09-20T07:35:55.802Z,1.67
2022-09-20T07:38:23.310Z,1.50
2022-09-20T07:41:00.853Z,1.60
2022-09-20T07:43:28.962Z,1.60
2022-09-20T07:45:58.101Z,1.50
2022-09-20T07:48:30.647Z,1.20
2022-09-20T07:51:06.841Z,1.60
2022-09-20T07:53:36.641Z,1.53
2022-09-20T07:56:05.819Z,1.47
2022-09-20T07:58:36.722Z,1.30
2022-09-20T08:01:09.584Z,1.37
2022-09-20T08:03:37.353Z,1.50
2022-09-20T08:06:10.553Z,1.40
2022-09-20T08:08:43.161Z,1.43
2022-09-20T08:11:14.523Z,1.53
2022-09-20T08:14:06.312Z,1.93
2022-09-20T08:16:38.717Z,1.77
2022-09-20T08:19:05.930Z,2.00
2022-09-20T08:21:35.155Z,1.57
2022-09-20T08:24:04.203Z,2.07
2022-09-20T08:26:32.402Z,2.03
2022-09-20T08:29:01.364Z,2.40
2022-09-20T08:31:37.269Z,2.20
2022-09-20T08:34:09.851Z,1.87
2022-09-20T08:36:41.538Z,2.03
2022-09-20T08:42:39.051Z,1.90
2022-09-20T08:45:34.420Z,2.23
2022-09-20T08:48:06.478Z,2.50
2022-09-20T08:50:37.308Z,2.30
2022-09-20T08:53:05.310Z,1.97
2022-09-20T08:55:37.696Z,1.93
2022-09-20T08:58:08.841Z,2.00
2022-09-20T09:00:39.066Z,1.93
2022-09-20T09:03:11.893Z,1.80
2022-09-20T09:05:52.062Z,2.07
2022-09-20T09:08:22.563Z,1.80
2022-09-20T09:10:56.535Z,1.77
2022-09-20T09:13:47.954Z,1.80
2022-09-20T09:16:23.098Z,1.87
2022-09-20T09:18:53.379Z,1.13
2022-09-20T09:21:22.267Z,1.30
2022-09-20T09:24:02.183Z,1.00
2022-09-20T09:26:36.936Z,1.00
2022-09-20T09:29:23.136Z,1.30
2022-09-20T09:31:52.887Z,1.00
2022-09-20T09:34:31.834Z,0.93
2022-09-20T09:36:59.492Z,1.00
2022-09-20T09:39:38.506Z,1.23
2022-09-20T09:42:24.109Z,0.93
2022-09-20T09:44:51.432Z,0.77
2022-09-20T09:47:29.344Z,0.97
2022-09-20T09:50:04.925Z,1.00
2022-09-20T09:52:36.563Z,1.13
2022-09-20T09:55:05.776Z,1.13
2022-09-20T09:58:31.981Z,1.20
2022-09-20T10:01:05.639Z,0.90
2022-09-20T10:03:47.696Z,0.90
2022-09-20T10:06:31.620Z,0.97
2022-09-20T10:09:18.128Z,0.77
2022-09-20T10:12:00.239Z,0.90
2022-09-20T10:14:36.477Z,0.90
2022-09-20T10:17:12.485Z,0.83
2022-09-20T10:20:09.243Z,1.10
2022-09-20T10:23:29.922Z,1.00
2022-09-20T10:25:55.250Z,1.10
2022-09-20T10:29:07.351Z,0.90
2022-09-20T10:32:01.608Z,0.90
2022-09-20T10:34:58.872Z,0.90
2022-09-20T10:37:35.431Z,1.00
2022-09-20T10:40:52.064Z,0.90
2022-09-20T10:43:34.012Z,1.10
2022-09-20T10:46:32.343Z,0.97
2022-09-20T10:49:36.998Z,0.83
2022-09-20T10:52:28.762Z,0.90
2022-09-20T10:55:45.511Z,1.10
2022-09-20T10:58:35.898Z,0.70
2022-09-20T11:01:22.370Z,0.90
2022-09-20T11:04:10.963Z,0.93
2022-09-20T11:07:11.013Z,0.93
2022-09-20T11:09:43.944Z,0.87
2022-09-20T11:12:17.964Z,0.80
2022-09-20T11:14:53.343Z,0.87
2022-09-20T11:17:46.128Z,0.80
2022-09-20T11:20:22.459Z,0.87
2022-09-20T11:22:55.557Z,0.93
2022-09-20T11:25:38.037Z,0.97
2022-09-20T11:28:14.050Z,0.77
2022-09-20T11:31:13.072Z,0.80
2022-09-20T11:33:49.545Z,1.10
2022-09-20T11:36:27.646Z,1.10
2022-09-20T11:38:57.890Z,0.80
2022-09-20T11:41:33.656Z,0.90
2022-09-20T11:44:11.164Z,1.00
2022-09-20T11:46:50.590Z,0.80
2022-09-20T11:49:30.481Z,0.80
2022-09-20T11:52:12.727Z,0.90
2022-09-20T11:54:56.965Z,0.90
2022-09-20T11:57:25.694Z,0.90
2022-09-20T11:59:57.293Z,0.83
2022-09-20T12:02:35.716Z,1.00
2022-09-20T12:05:08.540Z,0.80
2022-09-20T12:07:39.917Z,0.90
2022-09-20T12:10:26.630Z,1.10
2022-09-20T12:14:01.713Z,0.83
2022-09-20T12:17:47.291Z,0.80
2022-09-20T12:20:44.933Z,1.10
2022-09-20T12:23:43.440Z,0.60
2022-09-20T12:26:21.152Z,0.60
2022-09-20T12:28:51.146Z,0.80
2022-09-20T12:31:32.151Z,0.90
2022-09-20T12:34:11.242Z,0.73
2022-09-20T12:36:43.486Z,0.70
2022-09-20T12:39:11.368Z,0.90
2022-09-20T12:42:02.206Z,0.70
2022-09-20T12:44:36.728Z,1.73
2022-09-20T12:47:12.404Z,0.80
2022-09-20T12:50:07.163Z,1.00
2022-09-20T12:52:58.658Z,0.70
2022-09-20T12:55:40.582Z,0.60
2022-09-20T12:58:19.506Z,0.60
2022-09-20T13:00:51.384Z,0.80
2022-09-20T13:03:36.376Z,0.70
2022-09-20T13:06:12.124Z,0.97
2022-09-20T13:09:07.252Z,0.70
2022-09-20T13:11:45.158Z,0.70
2022-09-20T13:14:29.010Z,0.63
2022-09-20T13:17:01.434Z,0.60
2022-09-20T13:19:38.096Z,0.70
2022-09-20T13:22:25.476Z,0.80
2022-09-20T13:24:57.875Z,0.60
2022-09-20T13:27:31.039Z,0.80
2022-09-20T13:30:26.993Z,0.77
2022-09-20T13:32:54.210Z,0.70
2022-09-20T13:35:21.743Z,0.70
2022-09-20T13:37:59.016Z,0.67
2022-09-20T13:40:33.765Z,1.13
2022-09-20T13:43:23.624Z,0.73
2022-09-20T13:45:56.629Z,0.73
2022-09-20T13:48:29.164Z,0.90
2022-09-20T13:50:57.649Z,0.67
2022-09-20T13:53:41.245Z,0.60
2022-09-20T13:56:21.469Z,0.70
2022-09-20T13:58:50.211Z,0.70
2022-09-20T14:01:49.434Z,0.70
2022-09-20T14:04:21.534Z,0.60
2022-09-20T14:06:50.771Z,0.77
2022-09-20T14:09:26.577Z,0.90
2022-09-20T14:11:54.546Z,0.83
2022-09-20T14:14:23.435Z,0.77
2022-09-20T14:16:53.654Z,0.70
2022-09-20T14:19:27.625Z,0.67
2022-09-20T14:21:55.468Z,0.70
2022-09-20T14:24:27.384Z,1.00
2022-09-20T14:27:29.695Z,0.60
2022-09-20T14:29:57.450Z,0.83
2022-09-20T14:32:33.188Z,0.80
2022-09-20T14:35:02.358Z,0.80
2022-09-20T14:37:33.143Z,0.70
2022-09-20T14:40:07.368Z,0.70
2022-09-20T14:42:43.242Z,0.80
2022-09-20T14:45:33.968Z,0.60
2022-09-20T14:48:10.486Z,0.70
2022-09-20T14:50:42.442Z,0.70
2022-09-20T14:53:12.768Z,0.87
2022-09-20T14:55:57.297Z,0.70
2022-09-20T14:58:26.445Z,0.80
2022-09-20T15:00:53.865Z,0.60
2022-09-20T15:03:27.793Z,0.70
2022-09-20T15:05:55.575Z,0.60
2022-09-20T15:08:23.545Z,0.90
2022-09-20T15:10:50.959Z,0.77
2022-09-20T15:13:18.407Z,0.87
2022-09-20T15:15:50.965Z,0.53
2022-09-20T15:18:21.963Z,0.70
2022-09-20T15:20:50.624Z,0.80
2022-09-20T15:23:18.209Z,0.80
2022-09-20T15:25:46.386Z,0.77
2022-09-20T15:28:18.829Z,0.60
2022-09-20T15:30:48.052Z,0.70
2022-09-20T15:33:15.574Z,0.80
2022-09-20T15:35:44.326Z,0.70
2022-09-20T15:38:13.216Z,0.90
2022-09-20T15:40:47.704Z,0.70
2022-09-20T15:43:22.105Z,0.80
2022-09-20T15:45:55.292Z,0.90
2022-09-20T15:48:27.579Z,0.80
2022-09-20T15:51:06.014Z,0.80
2022-09-20T15:53:34.503Z,0.80
2022-09-20T15:56:04.310Z,0.70
2022-09-20T15:58:36.093Z,0.80
2022-09-20T16:01:08.862Z,0.90
2022-09-20T16:03:36.746Z,0.87
2022-09-20T16:06:07.113Z,0.80
2022-09-20T16:08:39.475Z,0.70
2022-09-20T16:11:09.351Z,0.97
2022-09-20T16:13:37.898Z,0.90
2022-09-20T16:16:06.639Z,0.80
2022-09-20T16:18:54.697Z,0.83
2022-09-20T16:21:22.220Z,0.77
2022-09-20T16:23:52.974Z,1.00
2022-09-20T16:26:22.541Z,0.80
2022-09-20T16:28:50.854Z,0.77
2022-09-20T16:31:44.986Z,0.90
2022-09-20T16:34:20.032Z,0.70
2022-09-20T16:36:49.269Z,0.90
2022-09-20T16:39:17.981Z,0.70
2022-09-20T16:41:50.302Z,0.80
2022-09-20T16:44:18.608Z,1.00
2022-09-20T16:46:46.215Z,0.87
2022-09-20T16:49:13.763Z,0.90
2022-09-20T16:51:43.138Z,0.60
2022-09-20T16:54:13.665Z,1.60
2022-09-20T16:56:49.470Z,0.87
2022-09-20T16:59:19.416Z,0.90
2022-09-20T17:01:46.961Z,0.80
2022-09-20T17:04:17.973Z,0.90
2022-09-20T17:06:46.318Z,0.80
2022-09-20T17:09:15.102Z,0.87
2022-09-20T17:11:48.133Z,0.93
2022-09-20T17:14:17.507Z,0.70
2022-09-20T17:16:48.120Z,0.80
2022-09-20T17:19:18.790Z,0.73
2022-09-20T17:21:51.483Z,1.00
2022-09-20T17:24:22.954Z,0.87
2022-09-20T17:26:51.173Z,1.00
2022-09-20T17:29:19.511Z,0.80
2022-09-20T17:31:54.482Z,0.83
2022-09-20T17:34:24.053Z,1.00
2022-09-20T17:36:51.563Z,0.80
2022-09-20T17:39:18.965Z,0.90
2022-09-20T17:41:48.441Z,0.80
2022-09-20T17:44:16.411Z,0.70
2022-09-20T17:46:46.639Z,0.90
2022-09-20T17:49:22.078Z,0.93
2022-09-20T17:51:52.693Z,0.80
2022-09-20T17:54:20.418Z,0.90
2022-09-20T17:56:50.510Z,0.90
2022-09-20T17:59:19.657Z,0.90
2022-09-20T18:01:50.133Z,1.17
2022-09-20T18:04:21.095Z,0.97
2022-09-20T18:06:50.983Z,1.33
2022-09-20T18:09:24.557Z,1.30
2022-09-20T18:11:53.834Z,1.40
2022-09-20T18:14:23.413Z,1.40
2022-09-20T18:16:58.315Z,1.70
2022-09-20T18:19:32.801Z,1.30
2022-09-20T18:22:02.180Z,1.10
2022-09-20T18:24:30.446Z,1.17
2022-09-20T18:26:57.653Z,1.40
2022-09-20T18:29:25.288Z,1.10
2022-09-20T18:31:54.712Z,1.10
2022-09-20T18:34:24.547Z,1.30
2022-09-20T18:36:54.018Z,0.97
2022-09-20T18:39:29.296Z,1.20
2022-09-20T18:41:56.455Z,1.13
2022-09-20T18:44:24.850Z,0.97
2022-09-20T18:46:55.246Z,1.13
2022-09-20T18:49:23.081Z,1.30
2022-09-20T18:51:50.583Z,1.17
2022-09-20T18:54:18.883Z,1.10
2022-09-20T18:56:48.339Z,1.10
2022-09-20T18:59:26.914Z,0.90
2022-09-20T19:02:12.863Z,0.90
2022-09-20T19:04:52.053Z,1.10
2022-09-20T19:07:28.552Z,0.90
2022-09-20T19:10:22.646Z,1.07
2022-09-20T19:13:01.517Z,1.20
2022-09-20T19:15:56.804Z,0.90
2022-09-20T19:18:44.218Z,1.10
2022-09-20T19:21:23.891Z,0.90
2022-09-20T19:24:03.593Z,0.80
2022-09-20T19:26:34.863Z,1.20
2022-09-20T19:29:02.414Z,0.80
2022-09-20T19:31:32.735Z,1.00
2022-09-20T19:34:07.464Z,1.03
2022-09-20T19:36:57.545Z,0.90
2022-09-20T19:39:33.815Z,1.00
2022-09-20T19:42:24.829Z,1.00
2022-09-20T19:45:38.628Z,0.80
2022-09-20T19:48:17.097Z,1.03
2022-09-20T19:50:53.094Z,1.20
2022-09-20T19:53:24.338Z,1.20
2022-09-20T19:56:03.812Z,1.10
2022-09-20T19:58:31.214Z,1.00
2022-09-20T20:00:58.820Z,0.87
2022-09-20T20:03:27.684Z,1.03
2022-09-20T20:06:08.565Z,1.00
2022-09-20T20:09:04.354Z,1.13
2022-09-20T20:11:59.344Z,0.87
2022-09-20T20:14:42.702Z,1.03
2022-09-20T20:17:19.416Z,1.00
2022-09-20T20:20:01.357Z,0.90
2022-09-20T20:22:47.405Z,0.83
2022-09-20T20:25:29.516Z,0.90
2022-09-20T20:27:56.653Z,0.97
2022-09-20T20:30:23.931Z,0.97
2022-09-20T20:32:58.129Z,1.03
2022-09-20T20:35:26.094Z,1.00
2022-09-20T20:37:53.745Z,1.20
2022-09-20T20:40:21.140Z,1.00
2022-09-20T20:42:49.674Z,0.80
2022-09-20T20:45:21.544Z,1.00
2022-09-20T20:47:49.748Z,0.80
2022-09-20T20:50:17.112Z,0.77
2022-09-20T20:52:45.589Z,0.83
2022-09-20T20:55:13.039Z,0.90
2022-09-20T20:57:40.383Z,0.80
2022-09-20T21:00:08.457Z,1.30
2022-09-20T21:02:36.778Z,1.00
2022-09-20T21:05:04.836Z,0.83
2022-09-20T21:07:32.245Z,1.00
2022-09-20T21:09:59.429Z,1.07
2022-09-20T21:12:27.317Z,0.90
2022-09-20T21:14:55.095Z,1.10
2022-09-20T21:17:22.373Z,1.23
2022-09-20T21:19:50.192Z,0.90
2022-09-20T21:22:17.483Z,1.07
2022-09-20T21:24:44.834Z,0.97
2022-09-20T21:27:15.952Z,1.20
2022-09-20T21:29:43.201Z,1.10
2022-09-20T21:32:10.354Z,1.20
2022-09-20T21:34:37.763Z,1.00
2022-09-20T21:37:05.123Z,0.80
2022-09-20T21:39:32.426Z,1.00
2022-09-20T21:41:59.904Z,1.20
2022-09-20T21:44:27.110Z,1.00
2022-09-20T21:46:54.388Z,1.27
2022-09-20T21:49:21.788Z,1.27
2022-09-20T21:51:52.221Z,1.13
2022-09-20T21:54:19.923Z,1.03
2022-09-20T21:56:47.149Z,1.10
2022-09-20T21:59:14.320Z,1.20
2022-09-20T22:01:41.612Z,1.30
2022-09-20T22:04:11.679Z,1.33
2022-09-20T22:06:41.435Z,1.20
2022-09-20T22:09:11.646Z,1.33
2022-09-20T22:11:41.941Z,1.23
2022-09-20T22:14:10.811Z,1.43
2022-09-20T22:16:42.454Z,1.20
2022-09-20T22:19:12.568Z,1.03
2022-09-20T22:21:45.570Z,1.00
2022-09-20T22:24:14.428Z,1.10
2022-09-20T22:26:48.465Z,1.10
2022-09-20T22:29:16.094Z,1.20
2022-09-20T22:31:46.512Z,1.40
2022-09-20T22:34:19.347Z,1.40
2022-09-20T22:36:47.030Z,1.40
2022-09-20T22:39:14.630Z,1.40
2022-09-20T22:41:42.840Z,1.63
2022-09-20T22:44:11.049Z,1.50
2022-09-20T22:46:39.513Z,1.20
2022-09-20T22:49:08.600Z,1.30
2022-09-20T22:51:36.696Z,1.30
2022-09-20T22:54:11.977Z,1.30
2022-09-20T22:56:41.532Z,1.20
2022-09-20T22:59:14.089Z,1.30
2022-09-20T23:01:48.302Z,1.30
2022-09-20T23:04:18.832Z,1.60
2022-09-20T23:06:48.105Z,1.37
2022-09-20T23:09:18.001Z,1.53
2022-09-20T23:11:45.667Z,1.60
2022-09-20T23:14:19.952Z,1.30
2022-09-20T23:16:48.122Z,1.57
2022-09-20T23:19:16.274Z,1.63
2022-09-20T23:21:44.233Z,1.50
2022-09-20T23:24:13.403Z,1.40
2022-09-20T23:26:41.978Z,1.40
2022-09-20T23:29:16.746Z,1.30
2022-09-20T23:31:46.684Z,1.40
2022-09-20T23:34:15.160Z,1.23
2022-09-20T23:36:42.725Z,1.23
2022-09-20T23:39:11.051Z,1.53
2022-09-20T23:41:38.841Z,1.67
2022-09-20T23:44:06.867Z,1.50
2022-09-20T23:46:34.132Z,1.73
2022-09-20T23:49:01.674Z,1.53
2022-09-20T23:51:29.587Z,1.60
2022-09-20T23:53:57.482Z,1.60
2022-09-20T23:56:24.896Z,1.60
2022-09-20T23:58:52.074Z,1.80
